STAZIONE METEO DI BARCELLONA P.G. CENTRO
Dati campionati ogni minuto da Consolle Davis Vantage Pro 2
ed inviati alla rete mediante server Anemos WDS5 wview



Barcellona P.G. Centro more information Barcellona P.G. Centro


Golfo di Patti more information Golfo di Patti


Thunder radar more information blitzortung!


Rain radar  rain snow radar


altri nostri siti meteo:

Rischio IncendiRischio Incendi

Rete NOAA MADIS

Italia Meteo Network

PomeziameteoSito web di stazione meteo amica



Esiste un problema di comunicazione. Vai direttamente al : www.meteoalarm.eu e controllare il meteo-avvertimenti.

Report METAR

   
LICF - Messina, Italy
Distanza dalla stazione: NE 30 km
Dati ricevuti: 08-08-2022 22:55
Parzialmente nuvoloso  
Parzialmente nuvoloso  
   Vento: NE 3.7 km/h
Vento: NE 3.7 km/h
Temperatura: 28°C
Indice di Calore: 33°C
P.to Rugiada: 26°C
Umidità: 89%
Barometro: 1013 hPa
Nuvole: Parzialmente nuvoloso
Visibilità: oltre 10 km
dettagli cloud: Parzialmente nuvoloso 914.4 m
LICF 082055Z 06002KT 9999 SCT030 28/26 Q1013 RMK SCT QUK / QUL / VIS MAR 12 KM MON INVIS NC VIS MIN 9999
LICR - Reggio Calabria, Italy
Distanza dalla stazione: SE 39 km
Dati ricevuti: 08-08-2022 23:20
Sereno  
Sereno  
   Vento: Nord 16.7 km/h
Vento: Nord 16.7 km/h
Temperatura: 29°C
Indice di Calore: 32°C
P.to Rugiada: 22°C
Umidità: 66%
Barometro: 1014 hPa
Nuvole: Sereno
Visibilità: oltre 10 km
dettagli cloud: Sereno
LICR 082120Z AUTO 01009KT 9999 NCD 29/22 Q1014
LICC - Catania/Fontanar, Italy
Distanza dalla stazione: S 77 km
Dati ricevuti: 08-08-2022 23:20
Sereno  
Sereno  
   Vento: SW 7.4 km/h
Vento: SW 7.4 km/h
Temperatura: 25°C
P.to Rugiada: 19°C
Umidità: 69%
Barometro: 1014 hPa
Visibilità: oltre 10 km
dettagli cloud: Sereno
LICC 082120Z 23004KT CAVOK 25/19 Q1014
LICZ - Sigonella (nas), Italy
Distanza dalla stazione: S 89 km
Dati ricevuti: 08-08-2022 22:55
Poche nuvole  
Poche nuvole  
   Vento: Variabile calma
Vento: Variabile calma
Temperatura: 27°C
Indice di Calore: 32°C
P.to Rugiada: 27°C
Umidità: 100%
Barometro: 1013 hPa
Nuvole: Poche nuvole
Visibilità: oltre 10 km
dettagli cloud: Poche nuvole 3048 m
LICZ 082055Z /////KT 9999 FEW100 27/27 Q1013
LICA - Lamezia Terme, Italy
Distanza dalla stazione: NE 122 km
Dati ricevuti: 08-08-2022 23:20
Poche nuvole  
Poche nuvole  
   Vento: Variabile 3.7 km/h
Vento: Variabile 3.7 km/h
Temperatura: 23°C
P.to Rugiada: 21°C
Umidità: 89%
Barometro: 1014 hPa
Nuvole: Poche nuvole
Visibilità: oltre 10 km
dettagli cloud: Poche nuvole 3962.4 m
LICA 082120Z AUTO VRB02KT 9999 FEW130/// 23/21 Q1014
LICB - Comiso, Italy
Distanza dalla stazione: S 138 km
Dati ricevuti: 08-08-2022 23:20
Sereno  
Sereno  
   Vento: NE 3.7 km/h
Vento: NE 3.7 km/h
Temperatura: 23°C
P.to Rugiada: 19°C
Umidità: 78%
Barometro: 1015 hPa
Nuvole: Sereno
Visibilità: oltre 10 km
dettagli cloud: Sereno
LICB 082120Z AUTO 06002KT 9999 NCD 23/19 Q1015

Script sviluppato da  Saratoga-weather.org Adattato per il modello da  Weerstation Leuven

Potete trovare le nostre info meteo anche a:

European Weather Network

Weather Underground

AWEKAS

Citizen Weather Observer Program (CWOP)

HAMweather, WeatherForYou, PWS Weather

Attrezzature usate:

Stazione meteo
Davis VP2

Programma gestore dati meteo
WVIEW

Server per i dati meteo
WDS5 Ecoblack

Davis VP2

WVIEW

WDS5 Ecoblack